This is the latest recevied weather packets stored in our database for station/object KD7AWQ. If no packets are shown the sender has not sent any weather packets the latest 10 day(s).
| Time | Temp. | Humidity | Pressure | Rain* | Wind** | Luminosity | Snow |
|---|---|---|---|---|---|---|---|
| 1778013546 | 18.33° C | 44% | 1180.2 hPa | 0 mm | - | 474 W/m² | - |
| 1778013243 | 18.89° C | 42% | 1180.3 hPa | 0 mm | - | 220 W/m² | - |
| 1778012939 | 18.33° C | 41% | 1180.4 hPa | 0 mm | - | 1273 W/m² | - |
| 1778012635 | 20° C | 32% | 1180.3 hPa | 0 mm | - | 143 W/m² | - |
| 1778012332 | 18.89° C | 40% | 1180.2 hPa | 0 mm | - | 1186 W/m² | - |
| 1778012029 | 18.33° C | 36% | 1180.3 hPa | 0 mm | - | 239 W/m² | - |
| 1778011728 | 18.33° C | 36% | 1180.4 hPa | 0 mm | - | 213 W/m² | - |
| 1778011424 | 18.33° C | 37% | 1180.4 hPa | 0 mm | - | 272 W/m² | - |
| 1778011120 | 18.33° C | 40% | 1180.3 hPa | 0 mm | - | 369 W/m² | - |
| 1778010817 | 18.89° C | 42% | 1180.4 hPa | 0 mm | - | 378 W/m² | - |
| 1778010514 | 17.78° C | 44% | 1180.4 hPa | 0 mm | - | 1321 W/m² | - |
| 1778010211 | 18.33° C | 43% | 1180.4 hPa | 0 mm | - | 246 W/m² | - |
| 1778009906 | 18.89° C | 43% | 1180.5 hPa | 0 mm | - | 1382 W/m² | - |
| 1778009605 | 18.89° C | 44% | 1180.5 hPa | 0 mm | - | 1187 W/m² | - |
| 1778009302 | 18.89° C | 43% | 1180.7 hPa | 0 mm | - | 1237 W/m² | - |
| 1778009000 | 18.89° C | 46% | 1180.9 hPa | 0 mm | - | 1190 W/m² | - |
| 1778008698 | 18.33° C | 51% | 1181.2 hPa | 0 mm | - | 1263 W/m² | - |
| 1778008396 | 17.22° C | 52% | 1181 hPa | 0 mm | - | 1314 W/m² | - |
| 1778008092 | 18.33° C | 50% | 1181.2 hPa | 0 mm | - | 282 W/m² | - |
| 1778007788 | 17.78° C | 51% | 1181.4 hPa | 0 mm | - | 418 W/m² | - |
| 1778007484 | 17.78° C | 52% | 1181.6 hPa | 0 mm | - | 503 W/m² | - |
| 1778007181 | 17.78° C | 53% | 1181.8 hPa | 0 mm | - | 743 W/m² | - |
| 1778006876 | 17.78° C | 54% | 1181.5 hPa | 0 mm | - | 373 W/m² | - |
| 1778006574 | 17.22° C | 55% | 1181.6 hPa | 0 mm | - | 457 W/m² | - |
| 1778006271 | 17.22° C | 58% | 1181.8 hPa | 0 mm | - | 777 W/m² | - |
* Rain latest hour (hover to see other rain measurements)
** Current wind speed in m/s (hover to see current wind gust speed)